Time;durP1;ratioP1;P1;durP2;ratioP2;P2;SDS_P1;SDS_P2;PMS_P1;PMS_P2;Temp;Humidity;BMP_temperature;BMP_pressure;BME280_temperature;BME280_humidity;BME280_pressure;Samples;Min_cycle;Max_cycle;Signal;HPM_P1;HPM_P2
2022/01/03 00:01:25;;;;;;;7.57;5.28;;;20.90;56.10;;;;;;5095103;28;20040;-69
2022/01/03 00:03:52;;;;;;;7.07;4.40;;;20.90;56.10;;;;;;5096952;28;20036;-69
2022/01/03 00:06:21;;;;;;;9.27;5.07;;;20.90;55.90;;;;;;5096042;28;20040;-70
2022/01/03 00:08:47;;;;;;;9.73;5.18;;;20.80;55.80;;;;;;5089066;28;20047;-69
2022/01/03 00:11:17;;;;;;;9.63;5.57;;;20.80;55.70;;;;;;5094222;28;20063;-69
2022/01/03 00:13:50;;;;;;;8.10;5.13;;;20.90;55.70;;;;;;5096729;28;20096;-69
2022/01/03 00:16:16;;;;;;;7.13;5.20;;;20.90;55.80;;;;;;5096120;28;20045;-70
2022/01/03 00:18:43;;;;;;;8.80;5.15;;;20.90;55.50;;;;;;5097023;28;20059;-69
2022/01/03 00:21:14;;;;;;;7.50;5.75;;;20.90;55.50;;;;;;5101005;28;20035;-69
2022/01/03 00:23:51;;;;;;;5.88;4.75;;;20.90;55.50;;;;;;5109016;28;20048;-70
2022/01/03 00:26:26;;;;;;;6.03;4.40;;;20.90;55.60;;;;;;5096806;28;20036;-69
2022/01/03 00:28:58;;;;;;;7.85;5.20;;;20.80;55.50;;;;;;5076766;28;20037;-69
2022/01/03 00:31:39;;;;;;;7.78;5.50;;;20.90;55.60;;;;;;5076292;28;20076;-70
2022/01/03 00:34:07;;;;;;;8.30;5.38;;;20.90;55.60;;;;;;5075896;28;20048;-69
2022/01/03 00:36:34;;;;;;;5.53;4.43;;;20.90;55.90;;;;;;5087739;28;20070;-69
2022/01/03 00:39:07;;;;;;;7.65;5.78;;;20.80;56.00;;;;;;5085421;28;20057;-69
2022/01/03 00:41:37;;;;;;;10.43;6.20;;;20.60;55.90;;;;;;5076603;28;20048;-69
2022/01/03 00:44:04;;;;;;;7.80;5.03;;;20.60;56.10;;;;;;5076696;28;20049;-69
2022/01/03 00:46:33;;;;;;;7.32;5.15;;;20.60;56.20;;;;;;5067074;28;20067;-69
2022/01/03 00:49:00;;;;;;;7.28;5.63;;;20.60;56.10;;;;;;5076606;28;20109;-69
2022/01/03 00:51:26;;;;;;;7.60;5.18;;;20.60;56.20;;;;;;5086575;28;20047;-69
2022/01/03 00:53:53;;;;;;;6.57;4.65;;;20.60;56.20;;;;;;5088385;28;20037;-70
2022/01/03 00:56:33;;;;;;;9.30;5.72;;;20.60;56.30;;;;;;5075452;28;20049;-69
2022/01/03 00:59:10;;;;;;;9.02;5.95;;;20.60;56.30;;;;;;5109901;28;20040;-71
2022/01/03 01:01:41;;;;;;;7.68;5.28;;;20.50;56.30;;;;;;5116015;28;20115;-69
2022/01/03 01:04:08;;;;;;;7.93;5.50;;;20.50;56.30;;;;;;5116203;28;20059;-71
2022/01/03 01:06:37;;;;;;;7.90;5.35;;;20.50;56.30;;;;;;5115357;28;20048;-70
2022/01/03 01:09:07;;;;;;;7.40;5.20;;;20.50;56.30;;;;;;5091552;28;20035;-69
2022/01/03 01:11:35;;;;;;;6.95;4.85;;;20.50;56.20;;;;;;5094099;28;20035;-69
2022/01/03 01:14:03;;;;;;;8.52;4.97;;;20.50;56.10;;;;;;5092842;28;20028;-69
2022/01/03 01:16:29;;;;;;;7.07;4.68;;;20.60;56.10;;;;;;5058208;28;20037;-69
2022/01/03 01:18:55;;;;;;;6.13;4.97;;;20.70;56.00;;;;;;5093047;28;20104;-69
2022/01/03 01:21:25;;;;;;;6.70;5.00;;;20.60;55.70;;;;;;5114605;28;20044;-71
2022/01/03 01:23:57;;;;;;;9.07;5.97;;;20.60;55.60;;;;;;5090764;28;20037;-70
2022/01/03 01:29:10;;;;;;;7.72;6.00;;;20.70;55.50;;;;;;5088771;28;20056;-69
2022/01/03 01:31:43;;;;;;;8.48;4.95;;;20.70;55.20;;;;;;5095140;28;20059;-69
2022/01/03 01:34:15;;;;;;;6.68;5.20;;;20.70;55.40;;;;;;5094465;28;20083;-70
2022/01/03 01:36:42;;;;;;;5.95;4.60;;;20.70;55.20;;;;;;5095194;28;20032;-69
2022/01/03 01:39:10;;;;;;;8.18;5.68;;;20.70;55.10;;;;;;5095030;28;20040;-69
2022/01/03 01:41:44;;;;;;;9.15;5.38;;;20.80;55.10;;;;;;5083641;28;20108;-69
2022/01/03 01:44:14;;;;;;;6.38;5.22;;;20.90;55.10;;;;;;5101582;28;20052;-69
2022/01/03 01:46:46;;;;;;;6.78;4.63;;;20.90;54.90;;;;;;5101375;28;20073;-69
2022/01/03 01:49:18;;;;;;;7.00;5.50;;;20.90;54.90;;;;;;5095582;28;20114;-69
2022/01/03 01:51:49;;;;;;;6.35;4.80;;;20.90;54.90;;;;;;5097355;28;20044;-69
2022/01/03 01:54:17;;;;;;;6.18;4.53;;;20.90;54.80;;;;;;5094678;28;20057;-69
2022/01/03 01:57:07;;;;;;;6.93;5.25;;;21.00;54.80;;;;;;5097631;28;20070;-70
2022/01/03 02:00:07;;;;;;;9.73;5.63;;;21.00;54.70;;;;;;5079223;28;20055;-69
2022/01/03 02:02:49;;;;;;;7.00;5.38;;;21.00;54.70;;;;;;5092413;28;20036;-69
2022/01/03 02:05:25;;;;;;;9.93;5.35;;;21.00;54.80;;;;;;5118522;28;20044;-69
2022/01/03 02:08:01;;;;;;;7.00;4.93;;;20.90;54.70;;;;;;5084280;28;20056;-70
2022/01/03 02:10:36;;;;;;;7.63;4.65;;;21.10;54.70;;;;;;5095119;28;20056;-69
2022/01/03 02:13:02;;;;;;;8.38;5.50;;;21.00;54.50;;;;;;5088945;28;20037;-70
2022/01/03 02:15:35;;;;;;;7.97;5.80;;;21.00;54.50;;;;;;5085994;28;20036;-69
2022/01/03 02:18:04;;;;;;;11.48;6.22;;;21.00;54.50;;;;;;5085393;28;20072;-69
2022/01/03 02:20:32;;;;;;;8.52;5.80;;;21.00;54.50;;;;;;5079274;28;20078;-69
2022/01/03 02:23:04;;;;;;;9.45;5.93;;;21.00;54.50;;;;;;5100982;28;20143;-69
2022/01/03 02:25:34;;;;;;;7.72;5.97;;;21.10;54.50;;;;;;5098209;28;20045;-69
2022/01/03 02:28:00;;;;;;;7.28;5.55;;;21.00;54.50;;;;;;5091879;28;20049;-70
2022/01/03 02:30:31;;;;;;;6.68;5.32;;;21.00;54.50;;;;;;5083725;28;20033;-70
2022/01/03 02:32:57;;;;;;;7.53;5.40;;;20.90;54.60;;;;;;5119317;28;20066;-69
2022/01/03 02:35:23;;;;;;;7.50;5.57;;;20.90;54.70;;;;;;5103594;28;20087;-69
2022/01/03 02:37:51;;;;;;;7.70;6.15;;;20.80;54.70;;;;;;5099084;28;20068;-69
2022/01/03 02:40:20;;;;;;;8.13;5.90;;;20.90;54.80;;;;;;5081509;28;20036;-69
2022/01/03 02:42:48;;;;;;;9.43;6.65;;;20.80;54.80;;;;;;5098701;28;20071;-69
2022/01/03 02:45:22;;;;;;;7.18;5.55;;;20.80;54.80;;;;;;5096969;28;20048;-69
2022/01/03 02:47:54;;;;;;;8.70;5.63;;;20.80;55.00;;;;;;5097385;28;20036;-69
2022/01/03 02:50:22;;;;;;;9.30;6.93;;;20.60;54.90;;;;;;5098725;28;20055;-70
2022/01/03 02:52:49;;;;;;;9.25;5.68;;;20.70;54.80;;;;;;5097160;28;20045;-69
2022/01/03 02:55:20;;;;;;;7.70;5.97;;;20.70;54.60;;;;;;5093728;28;20049;-69
2022/01/03 02:57:52;;;;;;;9.43;6.38;;;20.90;54.60;;;;;;5096062;28;20040;-69
2022/01/03 03:00:27;;;;;;;;;;;20.80;54.50;;;;;;5079317;28;20083;-69
2022/01/03 03:02:54;;;;;;;9.27;6.05;;;20.80;54.40;;;;;;5097695;28;19904;-69
2022/01/03 03:05:22;;;;;;;9.60;6.10;;;20.90;54.40;;;;;;5096678;28;20065;-69
2022/01/03 03:07:49;;;;;;;7.97;5.90;;;20.80;54.40;;;;;;5093482;28;20079;-69
2022/01/03 03:10:18;;;;;;;8.18;5.78;;;20.80;54.40;;;;;;5086735;28;20033;-69
2022/01/03 03:12:45;;;;;;;8.18;5.35;;;20.70;54.30;;;;;;5107790;28;20073;-69
2022/01/03 03:15:14;;;;;;;11.25;7.32;;;20.90;54.40;;;;;;5096541;28;20082;-70
2022/01/03 03:17:41;;;;;;;10.07;6.90;;;20.70;54.40;;;;;;5098283;28;20110;-69
2022/01/03 03:20:12;;;;;;;13.10;6.53;;;20.70;54.60;;;;;;5096646;28;20056;-69
2022/01/03 03:22:39;;;;;;;9.35;6.03;;;20.80;54.60;;;;;;5097222;28;20177;-69
2022/01/03 03:25:19;;;;;;;8.85;5.85;;;20.70;54.60;;;;;;5096918;28;20104;-69
2022/01/03 03:27:48;;;;;;;13.48;6.38;;;20.70;54.70;;;;;;5097414;28;20033;-69
2022/01/03 03:30:30;;;;;;;9.02;6.00;;;20.70;54.80;;;;;;5078930;28;20063;-69
2022/01/03 03:33:13;;;;;;;8.55;6.00;;;20.60;54.70;;;;;;5085574;28;20048;-69
2022/01/03 03:35:43;;;;;;;6.82;5.53;;;20.50;54.80;;;;;;5113417;28;20111;-69
2022/01/03 03:38:11;;;;;;;7.43;5.63;;;20.60;54.80;;;;;;5096168;28;20048;-69
2022/01/03 03:40:37;;;;;;;8.35;6.05;;;20.50;54.70;;;;;;5094253;28;20037;-69
2022/01/03 03:43:03;;;;;;;8.25;5.10;;;20.60;54.60;;;;;;5097507;28;20045;-69
2022/01/03 03:45:31;;;;;;;7.90;5.03;;;20.50;54.40;;;;;;5097644;28;20041;-69
2022/01/03 03:47:57;;;;;;;6.70;5.57;;;20.70;54.40;;;;;;5096730;28;20048;-69
2022/01/03 03:50:25;;;;;;;7.60;5.47;;;20.60;54.20;;;;;;5096948;28;20040;-69
2022/01/03 03:52:52;;;;;;;7.50;5.82;;;20.60;54.10;;;;;;5097447;28;20044;-69
2022/01/03 03:55:19;;;;;;;10.38;6.10;;;20.50;54.10;;;;;;5095087;28;20062;-69
2022/01/03 03:57:45;;;;;;;6.75;5.43;;;20.60;54.20;;;;;;5096173;28;20063;-67
2022/01/03 04:00:15;;;;;;;7.68;5.28;;;20.70;54.20;;;;;;5093838;28;20044;-69
2022/01/03 04:02:44;;;;;;;9.07;6.35;;;20.70;54.20;;;;;;5076580;28;20052;-69
2022/01/03 04:05:14;;;;;;;7.15;5.80;;;20.70;54.20;;;;;;5107577;28;20029;-69
2022/01/03 04:07:41;;;;;;;12.57;6.25;;;20.70;54.20;;;;;;5109715;28;20067;-69
2022/01/03 04:10:10;;;;;;;8.93;5.40;;;20.60;54.20;;;;;;5091668;28;20041;-69
2022/01/03 04:12:38;;;;;;;10.13;6.00;;;20.60;54.30;;;;;;5095318;28;20036;-69
2022/01/03 04:15:06;;;;;;;9.43;6.22;;;20.50;54.30;;;;;;5095484;28;20036;-69
2022/01/03 04:17:33;;;;;;;6.90;5.00;;;20.60;54.40;;;;;;5078238;28;20072;-69
2022/01/03 04:20:00;;;;;;;12.95;7.05;;;20.50;54.50;;;;;;5075780;28;20066;-69
2022/01/03 04:22:26;;;;;;;8.75;6.40;;;20.50;54.50;;;;;;5076804;28;20429;-69
2022/01/03 04:24:53;;;;;;;9.38;6.20;;;20.40;54.40;;;;;;5093038;28;20053;-69
2022/01/03 04:27:19;;;;;;;8.80;5.88;;;20.40;54.40;;;;;;5094062;28;20039;-69
2022/01/03 04:29:45;;;;;;;9.73;6.25;;;20.50;54.50;;;;;;5103321;28;20037;-70
2022/01/03 04:32:12;;;;;;;9.60;6.50;;;20.50;54.30;;;;;;5096668;28;20045;-68
2022/01/03 04:34:38;;;;;;;10.25;7.43;;;20.40;54.10;;;;;;5095770;28;20052;-69
2022/01/03 04:37:06;;;;;;;9.23;6.50;;;20.50;54.20;;;;;;5108482;28;20040;-69
2022/01/03 04:39:32;;;;;;;8.05;5.55;;;20.50;54.00;;;;;;5088463;28;20063;-70
2022/01/03 04:41:58;;;;;;;7.15;5.88;;;20.60;54.20;;;;;;5095040;28;20053;-69
2022/01/03 04:44:25;;;;;;;9.30;6.40;;;20.50;54.00;;;;;;5095591;28;20040;-69
2022/01/03 04:46:53;;;;;;;8.85;6.10;;;20.50;54.00;;;;;;5081756;28;20045;-70
2022/01/03 04:49:20;;;;;;;7.05;5.43;;;20.50;54.00;;;;;;5109316;28;20037;-70
2022/01/03 04:51:46;;;;;;;7.20;5.88;;;20.50;54.00;;;;;;5087956;28;20119;-70
2022/01/03 04:54:15;;;;;;;9.38;6.20;;;20.50;54.00;;;;;;5092031;28;20036;-70
2022/01/03 04:56:41;;;;;;;8.88;7.05;;;20.50;54.10;;;;;;5089959;28;20071;-70
2022/01/03 04:59:07;;;;;;;10.38;6.22;;;20.50;54.10;;;;;;5082609;28;20040;-70
2022/01/03 05:01:34;;;;;;;6.80;5.55;;;20.50;54.20;;;;;;5094062;28;20044;-69
2022/01/03 05:04:03;;;;;;;8.27;5.63;;;20.40;54.10;;;;;;5090178;28;20053;-70
2022/01/03 05:06:30;;;;;;;8.23;5.80;;;20.50;54.20;;;;;;5098600;28;20049;-70
2022/01/03 05:08:56;;;;;;;7.63;5.68;;;20.50;54.30;;;;;;5093630;28;20103;-69
2022/01/03 05:11:23;;;;;;;9.30;6.05;;;20.50;54.40;;;;;;5095025;28;20044;-69
2022/01/03 05:13:50;;;;;;;8.27;5.60;;;20.40;54.40;;;;;;5094283;28;20044;-70
2022/01/03 05:16:16;;;;;;;9.70;6.53;;;20.50;54.50;;;;;;5085900;28;20068;-69
2022/01/03 05:18:43;;;;;;;10.32;7.22;;;20.40;54.70;;;;;;5074841;28;20056;-69
2022/01/03 05:21:09;;;;;;;9.25;6.30;;;20.40;54.50;;;;;;5083844;28;20049;-69
2022/01/03 05:23:38;;;;;;;11.50;7.15;;;20.40;54.40;;;;;;5094302;28;20099;-70
2022/01/03 05:26:05;;;;;;;11.00;7.75;;;20.40;54.30;;;;;;5097945;28;20040;-69
2022/01/03 05:28:31;;;;;;;10.15;7.00;;;20.20;54.20;;;;;;5098785;28;20044;-70
2022/01/03 05:30:59;;;;;;;9.60;7.00;;;20.40;54.30;;;;;;5097899;28;20071;-69
2022/01/03 05:33:25;;;;;;;10.70;7.18;;;20.20;54.00;;;;;;5098408;28;20048;-69
2022/01/03 05:35:51;;;;;;;9.65;7.72;;;20.30;54.10;;;;;;5098593;28;20084;-69
2022/01/03 05:38:17;;;;;;;8.00;6.63;;;20.40;54.00;;;;;;5096966;28;20055;-69
2022/01/03 05:40:44;;;;;;;16.35;8.82;;;20.40;54.00;;;;;;5083635;28;20062;-69
2022/01/03 05:43:10;;;;;;;13.18;7.68;;;20.50;54.00;;;;;;5100534;28;20047;-69
2022/01/03 05:45:38;;;;;;;11.15;7.47;;;20.40;53.70;;;;;;5082574;28;20055;-70
2022/01/03 05:48:05;;;;;;;11.98;7.32;;;20.50;53.70;;;;;;5097388;28;20063;-69
2022/01/03 05:50:32;;;;;;;14.27;8.60;;;20.50;53.80;;;;;;5080628;28;20097;-69
2022/01/03 05:52:59;;;;;;;10.90;7.10;;;20.40;53.70;;;;;;5098303;28;20079;-69
2022/01/03 05:55:25;;;;;;;12.00;7.50;;;20.40;53.80;;;;;;5087053;28;20047;-70
2022/01/03 05:57:51;;;;;;;12.70;8.68;;;20.40;54.00;;;;;;5084700;28;20087;-69
2022/01/03 06:00:24;;;;;;;8.80;6.85;;;20.30;54.10;;;;;;5115874;28;20057;-70
2022/01/03 06:02:57;;;;;;;9.68;6.82;;;20.40;54.20;;;;;;5119370;28;20043;-69
2022/01/03 06:08:12;;;;;;;11.43;7.78;;;20.40;54.20;;;;;;5073861;28;20037;-69
2022/01/03 06:10:42;;;;;;;12.07;7.80;;;20.40;54.10;;;;;;5090053;28;20060;-70
2022/01/03 06:13:17;;;;;;;9.85;6.47;;;20.30;54.20;;;;;;5094190;28;20120;-70
2022/01/03 06:15:45;;;;;;;9.52;6.68;;;20.40;55.30;;;;;;5094025;28;20064;-70
2022/01/03 06:18:15;;;;;;;8.75;6.55;;;20.20;56.40;;;;;;5101584;28;20064;-70
2022/01/03 06:20:46;;;;;;;8.95;5.22;;;20.30;57.50;;;;;;5097275;28;20103;-69
2022/01/03 06:23:16;;;;;;;7.95;5.35;;;20.30;58.10;;;;;;5097288;28;20044;-69
2022/01/03 06:25:43;;;;;;;9.82;5.65;;;20.40;58.10;;;;;;5091771;28;20064;-70
2022/01/03 06:28:09;;;;;;;11.48;7.47;;;20.60;57.90;;;;;;5096428;28;20045;-71
2022/01/03 06:30:43;;;;;;;9.27;6.47;;;20.60;57.80;;;;;;5089178;28;20040;-70
2022/01/03 06:33:11;;;;;;;5.63;4.22;;;20.70;58.10;;;;;;5093369;28;20060;-69
2022/01/03 06:35:37;;;;;;;5.70;3.47;;;20.60;51.40;;;;;;5095530;28;20107;-69
2022/01/03 06:38:04;;;;;;;5.07;3.40;;;20.80;50.40;;;;;;5096974;28;20044;-68
2022/01/03 06:40:31;;;;;;;8.75;4.30;;;20.70;48.50;;;;;;5095480;28;20048;-69
2022/01/03 06:42:57;;;;;;;10.05;5.00;;;21.10;48.90;;;;;;5096416;28;20075;-70
2022/01/03 06:45:25;;;;;;;5.40;4.55;;;21.30;47.50;;;;;;5096706;28;20056;-70
2022/01/03 06:47:53;;;;;;;4.53;3.58;;;21.20;46.60;;;;;;5097182;28;20046;-68
2022/01/03 06:50:19;;;;;;;11.18;6.35;;;21.40;46.30;;;;;;5096455;28;20048;-70
2022/01/03 06:52:46;;;;;;;13.63;7.07;;;21.40;48.90;;;;;;5092584;28;20041;-69
2022/01/03 06:55:16;;;;;;;11.70;8.02;;;21.50;57.90;;;;;;5095290;28;20051;-69
2022/01/03 06:57:45;;;;;;;12.98;8.32;;;21.40;58.10;;;;;;5077312;28;20041;-70
2022/01/03 07:00:12;;;;;;;17.80;9.95;;;21.40;59.00;;;;;;5096125;28;20113;-68
2022/01/03 07:02:42;;;;;;;17.40;9.00;;;21.30;58.20;;;;;;5095523;28;20104;-69
2022/01/03 07:05:14;;;;;;;15.63;10.27;;;21.20;58.10;;;;;;5092641;28;20064;-68
2022/01/03 07:07:41;;;;;;;14.20;10.75;;;21.10;59.10;;;;;;5090466;28;20059;-70
2022/01/03 07:10:09;;;;;;;21.40;12.23;;;21.00;64.90;;;;;;5086970;28;20107;-69
2022/01/03 07:12:35;;;;;;;19.60;12.00;;;20.90;64.00;;;;;;5092653;28;20064;-70
2022/01/03 07:20:33;;;;;;;20.55;13.30;;;20.90;64.10;;;;;;5092264;28;20135;-70
2022/01/03 07:23:00;;;;;;;19.85;12.43;;;21.00;64.00;;;;;;5087237;28;20063;-71
2022/01/03 07:25:26;;;;;;;20.05;12.77;;;20.90;64.00;;;;;;5084564;28;20103;-69
2022/01/03 07:27:52;;;;;;;19.70;11.90;;;20.90;64.40;;;;;;5097124;28;20036;-70
2022/01/03 07:30:18;;;;;;;18.48;12.10;;;20.80;64.00;;;;;;5093076;28;20053;-69
2022/01/03 07:32:44;;;;;;;17.55;11.82;;;20.60;63.60;;;;;;5096938;28;20032;-69
2022/01/03 07:35:13;;;;;;;19.40;11.43;;;20.90;64.10;;;;;;5084607;28;20056;-69
2022/01/03 07:37:40;;;;;;;18.13;10.90;;;20.90;64.20;;;;;;5096029;28;20104;-67
2022/01/03 07:40:07;;;;;;;17.80;10.95;;;20.90;64.00;;;;;;5093995;28;20057;-69
2022/01/03 07:42:33;;;;;;;16.27;11.55;;;20.90;64.10;;;;;;5091321;28;20066;-69
2022/01/03 07:45:01;;;;;;;17.20;11.40;;;20.90;64.10;;;;;;5076573;28;20044;-69
2022/01/03 07:47:27;;;;;;;15.07;10.63;;;20.90;64.10;;;;;;5094412;28;20067;-69
2022/01/03 07:49:53;;;;;;;18.95;11.65;;;20.90;63.80;;;;;;5094546;28;20036;-69
2022/01/03 07:52:19;;;;;;;17.98;11.43;;;20.90;64.30;;;;;;5087002;28;20067;-70
2022/01/03 07:54:45;;;;;;;15.13;10.65;;;21.00;64.40;;;;;;5094659;28;20064;-68
2022/01/03 07:57:12;;;;;;;13.57;10.15;;;20.90;64.60;;;;;;5076725;28;20049;-70
2022/01/03 07:59:38;;;;;;;18.13;12.65;;;20.90;64.80;;;;;;5080854;28;20041;-69
2022/01/03 08:02:04;;;;;;;20.70;13.13;;;21.00;65.30;;;;;;5097912;28;20045;-70
2022/01/03 08:04:31;;;;;;;20.45;12.00;;;21.00;65.00;;;;;;5092835;28;20043;-70
2022/01/03 08:06:57;;;;;;;16.83;10.85;;;20.90;64.90;;;;;;5096374;28;20075;-70
2022/01/03 08:09:23;;;;;;;16.33;11.23;;;20.90;65.40;;;;;;5095588;28;20051;-70
2022/01/03 08:11:52;;;;;;;17.50;11.32;;;20.80;65.20;;;;;;5103016;28;20040;-69
2022/01/03 08:14:19;;;;;;;14.48;10.07;;;20.70;65.20;;;;;;5115753;28;20066;-69
2022/01/03 08:16:45;;;;;;;15.43;9.48;;;20.70;65.30;;;;;;5085426;28;20041;-69
2022/01/03 08:19:11;;;;;;;14.20;10.10;;;20.80;64.80;;;;;;5095921;28;20055;-70
2022/01/03 08:21:37;;;;;;;16.05;10.40;;;20.90;65.40;;;;;;5094389;28;20107;-70
2022/01/03 08:24:04;;;;;;;17.02;9.77;;;20.80;64.90;;;;;;5093907;28;20036;-70
2022/01/03 08:26:31;;;;;;;14.82;9.75;;;20.80;64.70;;;;;;5087905;28;20045;-70
2022/01/03 08:28:57;;;;;;;13.35;9.95;;;20.90;64.50;;;;;;5090242;28;20036;-69
2022/01/03 08:31:23;;;;;;;13.25;9.82;;;21.00;63.90;;;;;;5094024;28;20100;-69
2022/01/03 08:33:49;;;;;;;13.93;9.98;;;21.00;62.60;;;;;;5096955;28;20128;-70
2022/01/03 08:36:16;;;;;;;14.23;9.63;;;21.00;62.60;;;;;;5089224;28;20045;-68
2022/01/03 08:38:42;;;;;;;14.27;9.95;;;20.90;62.40;;;;;;5084433;28;20036;-70
2022/01/03 08:41:08;;;;;;;15.57;9.93;;;21.00;62.50;;;;;;5092997;28;20036;-71
2022/01/03 08:43:35;;;;;;;13.68;8.50;;;21.00;62.20;;;;;;5090401;28;20043;-72
2022/01/03 08:46:01;;;;;;;12.23;7.30;;;21.20;62.90;;;;;;5099645;28;20048;-71
2022/01/03 08:48:28;;;;;;;13.25;7.40;;;21.30;61.50;;;;;;5103888;28;20068;-71
2022/01/03 08:50:55;;;;;;;13.23;8.70;;;21.40;62.30;;;;;;5094241;28;20051;-71
2022/01/03 08:53:26;;;;;;;13.23;9.15;;;21.60;63.40;;;;;;5085191;28;20039;-71
2022/01/03 08:55:56;;;;;;;13.38;7.63;;;21.70;63.30;;;;;;5083404;28;20052;-71
2022/01/03 08:58:23;;;;;;;12.05;7.85;;;21.80;60.30;;;;;;5091568;28;20116;-72
2022/01/03 09:00:49;;;;;;;12.57;7.85;;;21.80;58.40;;;;;;5099287;28;20048;-72
2022/01/03 09:03:16;;;;;;;17.00;9.18;;;21.90;57.00;;;;;;5097673;28;20048;-71
2022/01/03 09:05:43;;;;;;;12.00;7.63;;;21.90;55.90;;;;;;5101530;28;20074;-71
2022/01/03 09:08:10;;;;;;;14.98;9.05;;;22.00;55.20;;;;;;5100992;28;20051;-70
2022/01/03 09:10:37;;;;;;;12.50;8.60;;;21.90;54.70;;;;;;5098292;28;20096;-71
2022/01/03 09:13:03;;;;;;;15.05;10.00;;;22.00;54.40;;;;;;5100895;28;20037;-71
2022/01/03 09:15:30;;;;;;;12.40;9.02;;;21.90;54.20;;;;;;5100379;28;20040;-71
2022/01/03 09:17:56;;;;;;;13.98;8.98;;;22.00;52.30;;;;;;5101180;28;20044;-71
2022/01/03 09:20:22;;;;;;;13.40;8.43;;;22.00;52.60;;;;;;5100187;28;20059;-70
2022/01/03 09:22:51;;;;;;;17.15;10.43;;;22.00;52.10;;;;;;5097355;28;20055;-70
2022/01/03 09:30:36;;;;;;;16.88;10.23;;;22.00;50.20;;;;;;5101165;28;20039;-70
2022/01/03 09:33:04;;;;;;;16.20;10.32;;;21.90;49.50;;;;;;5094920;28;20075;-70
2022/01/03 09:35:32;;;;;;;16.50;10.10;;;22.00;49.10;;;;;;5092176;28;20044;-70
2022/01/03 09:37:58;;;;;;;18.70;11.27;;;22.00;48.60;;;;;;5099823;28;20049;-70
2022/01/03 09:40:24;;;;;;;14.55;10.38;;;22.00;48.00;;;;;;5100837;28;20060;-71
2022/01/03 09:42:56;;;;;;;15.60;10.55;;;22.00;47.50;;;;;;5101941;28;20040;-70
2022/01/03 09:45:25;;;;;;;15.30;10.65;;;22.00;47.40;;;;;;5099735;28;20047;-69
2022/01/03 09:47:55;;;;;;;20.10;13.57;;;22.00;47.40;;;;;;5094139;28;20037;-69
2022/01/03 09:50:22;;;;;;;19.92;12.43;;;21.90;47.20;;;;;;5101571;28;20033;-70
2022/01/03 09:52:49;;;;;;;21.33;13.20;;;21.90;47.20;;;;;;5081426;28;20041;-69
2022/01/03 09:55:18;;;;;;;27.27;14.82;;;21.90;47.90;;;;;;5081915;28;20124;-69
2022/01/03 09:57:46;;;;;;;21.58;15.02;;;21.60;48.60;;;;;;5085399;28;20048;-69
2022/01/03 10:00:18;;;;;;;24.40;14.50;;;21.60;50.00;;;;;;5081916;28;20052;-69
2022/01/03 10:02:45;;;;;;;24.13;15.30;;;21.50;51.30;;;;;;5082068;28;20070;-69
2022/01/03 10:05:12;;;;;;;25.88;15.63;;;21.40;52.10;;;;;;5086097;28;20139;-69
2022/01/03 10:07:40;;;;;;;19.80;13.23;;;21.50;53.00;;;;;;5101078;28;20049;-69
2022/01/03 10:10:08;;;;;;;21.67;14.05;;;21.40;53.60;;;;;;5101803;28;20040;-69
2022/01/03 10:12:36;;;;;;;23.65;15.27;;;21.30;54.40;;;;;;5084106;28;20047;-69
2022/01/03 10:15:05;;;;;;;22.48;13.68;;;21.30;55.10;;;;;;5078471;28;20076;-69
2022/01/03 10:17:35;;;;;;;19.80;12.60;;;21.20;55.60;;;;;;5098588;28;20055;-68
2022/01/03 10:20:05;;;;;;;11.85;6.25;;;21.20;56.10;;;;;;5098769;28;20047;-68
2022/01/03 10:22:34;;;;;;;8.20;5.63;;;21.20;48.60;;;;;;5098674;28;20044;-69
2022/01/03 10:25:08;;;;;;;9.13;6.07;;;21.40;46.30;;;;;;5098348;28;20068;-68
2022/01/03 10:27:52;;;;;;;6.43;4.38;;;21.50;45.10;;;;;;5084305;28;20051;-69
2022/01/03 10:30:39;;;;;;;9.65;5.78;;;21.60;44.30;;;;;;5078340;28;20062;-69
2022/01/03 10:33:12;;;;;;;13.20;6.25;;;21.70;44.20;;;;;;5078297;28;20036;-69
2022/01/03 10:35:45;;;;;;;9.73;5.78;;;21.70;43.80;;;;;;5080836;28;20053;-71
2022/01/03 10:38:29;;;;;;;;;;;21.80;46.00;;;;;;5092991;28;20037;-69
2022/01/03 10:41:09;;;;;;;14.88;7.70;;;22.00;44.30;;;;;;5096922;28;19913;-70
2022/01/03 10:43:36;;;;;;;7.50;5.88;;;22.00;48.80;;;;;;5087106;28;20049;-68
2022/01/03 10:46:21;;;;;;;13.18;7.22;;;22.10;48.90;;;;;;5097412;28;20047;-68
2022/01/03 10:48:47;;;;;;;13.48;6.15;;;22.30;47.90;;;;;;5096690;28;20029;-70
2022/01/03 10:51:22;;;;;;;11.30;6.30;;;22.40;48.80;;;;;;5097137;28;20056;-70
2022/01/03 10:53:51;;;;;;;8.48;4.43;;;22.60;48.30;;;;;;5094829;28;20052;-70
2022/01/03 10:56:29;;;;;;;10.90;5.85;;;22.70;47.40;;;;;;5097269;28;20052;-70
2022/01/03 10:58:57;;;;;;;7.95;5.32;;;23.00;43.50;;;;;;5094815;28;20041;-69
2022/01/03 11:01:29;;;;;;;11.23;5.80;;;23.00;47.10;;;;;;5096436;28;20040;-72
2022/01/03 11:03:59;;;;;;;7.35;5.22;;;23.20;46.70;;;;;;5096740;28;20052;-69
2022/01/03 11:11:48;;;;;;;9.35;6.38;;;23.30;42.90;;;;;;5092973;28;20064;-69
2022/01/03 11:14:50;;;;;;;17.20;11.38;;;23.20;40.70;;;;;;5092533;28;20037;-70
2022/01/03 11:17:29;;;;;;;14.00;10.27;;;23.20;49.20;;;;;;5073410;28;20040;-69
2022/01/03 11:19:59;;;;;;;17.92;11.13;;;23.20;51.70;;;;;;5092545;28;20045;-70
2022/01/03 11:22:45;;;;;;;14.63;9.18;;;23.20;51.50;;;;;;5087404;28;20074;-72
2022/01/03 11:25:12;;;;;;;18.38;10.82;;;23.00;52.60;;;;;;5096829;28;20048;-71
2022/01/03 11:27:40;;;;;;;15.20;10.55;;;22.90;53.40;;;;;;5095496;28;20044;-71
2022/01/03 11:30:12;;;;;;;15.75;10.27;;;22.80;54.30;;;;;;5095991;28;20040;-71
2022/01/03 11:32:48;;;;;;;15.13;9.50;;;22.70;55.40;;;;;;5096869;28;20086;-69
2022/01/03 11:35:15;;;;;;;18.88;9.88;;;22.50;55.60;;;;;;5097265;28;20063;-71
2022/01/03 11:37:46;;;;;;;13.57;10.20;;;22.40;56.20;;;;;;5097263;28;20059;-71
2022/01/03 11:40:14;;;;;;;14.70;10.45;;;22.40;56.80;;;;;;5094711;28;20060;-71
2022/01/03 11:42:42;;;;;;;17.02;10.50;;;22.20;57.30;;;;;;5090766;28;20076;-71
2022/01/03 11:45:09;;;;;;;17.15;12.43;;;22.20;57.90;;;;;;5095635;28;20075;-71
2022/01/03 11:47:36;;;;;;;15.32;10.45;;;22.10;58.10;;;;;;5089258;28;20044;-70
2022/01/03 11:50:07;;;;;;;17.13;10.68;;;22.10;58.50;;;;;;5096870;28;20109;-70
2022/01/03 11:52:41;;;;;;;21.35;11.27;;;22.00;57.90;;;;;;5096733;28;20071;-70
2022/01/03 11:55:14;;;;;;;19.67;12.18;;;22.00;58.60;;;;;;5096929;28;20043;-71
2022/01/03 12:03:39;;;;;;;21.38;12.38;;;21.90;58.50;;;;;;5096501;28;20048;-72
2022/01/03 12:06:10;;;;;;;19.38;11.93;;;21.80;58.40;;;;;;5095922;28;20119;-70
2022/01/03 12:08:38;;;;;;;21.38;13.43;;;21.90;58.60;;;;;;5095096;28;20032;-70
2022/01/03 12:11:23;;;;;;;22.45;14.50;;;21.90;58.40;;;;;;5095032;28;20068;-69
2022/01/03 12:13:55;;;;;;;19.88;13.23;;;21.90;58.50;;;;;;5095070;28;20568;-70
2022/01/03 12:16:46;;;;;;;15.70;11.30;;;21.90;58.50;;;;;;5095359;28;20052;-71
2022/01/03 12:19:34;;;;;;;18.08;11.77;;;21.80;58.30;;;;;;5091994;28;20037;-71
2022/01/03 12:22:13;;;;;;;27.63;14.65;;;21.90;58.50;;;;;;5086276;28;20047;-71
2022/01/03 12:25:03;;;;;;;27.88;16.08;;;21.80;58.40;;;;;;5095070;28;20056;-69
2022/01/03 12:27:35;;;;;;;49.78;22.42;;;21.90;60.50;;;;;;5088876;28;20057;-70
2022/01/03 12:30:01;;;;;;;36.22;20.17;;;21.90;63.20;;;;;;5090079;28;20070;-71
2022/01/03 12:32:54;;;;;;;19.67;13.15;;;21.90;63.20;;;;;;5095180;28;20099;-69
2022/01/03 12:35:23;;;;;;;16.55;11.32;;;21.80;63.40;;;;;;5087634;28;20083;-70
2022/01/03 12:37:52;;;;;;;23.58;12.68;;;21.90;62.00;;;;;;5092490;28;20135;-70
2022/01/03 12:40:29;;;;;;;30.50;15.85;;;21.80;61.40;;;;;;5091034;28;20082;-70
2022/01/03 12:42:59;;;;;;;28.45;15.15;;;21.70;60.60;;;;;;5095650;28;20044;-70
2022/01/03 12:45:34;;;;;;;21.40;14.00;;;21.70;60.50;;;;;;5093954;28;20044;-70
2022/01/03 12:50:43;;;;;;;22.00;14.50;;;21.70;60.30;;;;;;5093736;28;20098;-70
2022/01/03 12:53:27;;;;;;;28.75;15.23;;;21.60;60.00;;;;;;5080853;28;20101;-71
2022/01/03 12:56:09;;;;;;;26.60;16.27;;;21.60;59.60;;;;;;5081483;28;20075;-71
2022/01/03 12:58:36;;;;;;;25.40;16.17;;;21.70;59.40;;;;;;5092533;28;20040;-70
2022/01/03 13:01:11;;;;;;;23.23;14.50;;;21.70;59.20;;;;;;5096021;28;20045;-70
2022/01/03 13:03:50;;;;;;;26.60;15.40;;;21.70;58.80;;;;;;5091341;28;20044;-71
2022/01/03 13:06:25;;;;;;;30.83;17.58;;;21.80;58.60;;;;;;5094725;28;20048;-70
2022/01/03 13:08:54;;;;;;;33.83;17.50;;;21.80;58.40;;;;;;5095368;28;20043;-71
2022/01/03 13:11:23;;;;;;;27.00;17.08;;;21.90;58.50;;;;;;5094541;28;20086;-70
2022/01/03 13:14:15;;;;;;;27.50;17.27;;;21.90;58.40;;;;;;5095000;28;20068;-70
2022/01/03 13:17:02;;;;;;;25.45;17.35;;;21.90;58.30;;;;;;5091137;28;20046;-70
2022/01/03 13:19:30;;;;;;;30.95;18.80;;;21.90;58.20;;;;;;5094960;28;20045;-71
2022/01/03 13:22:00;;;;;;;37.70;21.15;;;22.00;58.00;;;;;;5094427;28;20045;-70